Time;durP1;ratioP1;P1;durP2;ratioP2;P2;SDS_P1;SDS_P2;PMS_P1;PMS_P2;Temp;Humidity;BMP_temperature;BMP_pressure;BME280_temperature;BME280_humidity;BME280_pressure;Samples;Min_cycle;Max_cycle;Signal;HPM_P1;HPM_P2
2022/04/21 00:00:43;;;;;;;;;3.33;3.33;;;;;;;;5064670;28;46265;-70
2022/04/21 00:03:09;;;;;;;;;4.25;3.25;;;;;;;;5077437;27;45308;-70
2022/04/21 00:05:34;;;;;;;;;4.50;4.25;;;;;;;;5064870;28;45646;-70
2022/04/21 00:08:00;;;;;;;;;3.00;3.00;;;;;;;;5075897;28;45292;-70
2022/04/21 00:10:25;;;;;;;;;3.50;3.50;;;;;;;;5075005;28;46154;-70
2022/04/21 00:12:51;;;;;;;;;4.25;3.25;;;;;;;;5075567;28;45541;-70
2022/04/21 00:15:17;;;;;;;;;3.75;3.75;;;;;;;;5075947;28;45395;-70
2022/04/21 00:17:42;;;;;;;;;4.00;2.25;;;;;;;;5075931;27;45347;-70
2022/04/21 00:20:08;;;;;;;;;3.75;3.75;;;;;;;;5063755;27;46953;-70
2022/04/21 00:25:18;;;;;;;;;5.00;3.00;;;;;;;;5071207;28;45364;-70
2022/04/21 00:27:44;;;;;;;;;6.25;4.25;;;;;;;;5071537;27;45461;-70
2022/04/21 00:30:10;;;;;;;;;4.00;4.00;;;;;;;;5075388;27;45321;-70
2022/04/21 00:32:36;;;;;;;;;3.00;3.00;;;;;;;;5072268;28;45402;-70
2022/04/21 00:35:01;;;;;;;;;2.75;2.75;;;;;;;;5074322;28;45608;-70
2022/04/21 00:37:27;;;;;;;;;2.67;2.33;;;;;;;;5074780;27;45473;-70
2022/04/21 00:39:52;;;;;;;;;4.00;3.00;;;;;;;;5077853;27;47140;-70
2022/04/21 00:42:18;;;;;;;;;4.00;4.00;;;;;;;;5075374;28;45375;-70
2022/04/21 00:44:43;;;;;;;;;3.00;3.00;;;;;;;;5074025;28;45421;-70
2022/04/21 00:47:08;;;;;;;;;4.25;3.00;;;;;;;;5075614;27;45585;-70
2022/04/21 00:49:35;;;;;;;;;3.75;2.50;;;;;;;;5074652;28;46533;-70
2022/04/21 00:52:01;;;;;;;;;3.25;3.25;;;;;;;;5074633;27;45411;-70
2022/04/21 00:54:29;;;;;;;;;3.00;3.00;;;;;;;;5075539;27;45503;-70
2022/04/21 00:56:55;;;;;;;;;3.50;3.50;;;;;;;;5075382;27;45445;-70
2022/04/21 00:59:20;;;;;;;;;3.75;3.75;;;;;;;;5077671;27;46336;-70
2022/04/21 01:04:30;;;;;;;;;4.00;3.00;;;;;;;;5077186;27;45980;-70
2022/04/21 01:06:55;;;;;;;;;4.50;3.50;;;;;;;;5074664;28;45409;-70
2022/04/21 01:09:20;;;;;;;;;4.25;3.00;;;;;;;;5065317;27;45409;-70
2022/04/21 01:11:46;;;;;;;;;4.00;4.00;;;;;;;;5075580;28;45341;-70
2022/04/21 01:14:13;;;;;;;;;5.75;4.00;;;;;;;;5074754;28;45366;-70
2022/04/21 01:16:38;;;;;;;;;3.75;3.75;;;;;;;;5074988;27;45456;-70
2022/04/21 01:19:03;;;;;;;;;3.00;3.00;;;;;;;;5073921;27;46391;-70
2022/04/21 01:21:29;;;;;;;;;3.50;2.25;;;;;;;;5074020;27;45541;-69
2022/04/21 01:23:54;;;;;;;;;3.00;2.00;;;;;;;;5074458;27;45917;-70
2022/04/21 01:26:19;;;;;;;;;2.50;2.25;;;;;;;;5075898;27;45362;-70
2022/04/21 01:28:45;;;;;;;;;2.00;2.00;;;;;;;;5077061;27;45449;-70
2022/04/21 01:31:10;;;;;;;;;3.00;3.00;;;;;;;;5074475;28;45347;-70
2022/04/21 01:33:35;;;;;;;;;2.75;2.75;;;;;;;;5077274;27;45281;-70
2022/04/21 01:36:01;;;;;;;;;3.00;3.00;;;;;;;;5076247;27;45557;-70
2022/04/21 01:41:10;;;;;;;;;1.50;1.50;;;;;;;;5076053;27;45417;-70
2022/04/21 01:43:38;;;;;;;;;3.25;2.75;;;;;;;;5075872;27;48854;-70
2022/04/21 01:46:04;;;;;;;;;4.50;3.00;;;;;;;;5077962;27;45524;-70
2022/04/21 01:48:29;;;;;;;;;2.00;2.00;;;;;;;;5077123;28;45318;-70
2022/04/21 01:50:55;;;;;;;;;3.00;3.00;;;;;;;;5076662;27;45511;-70
2022/04/21 01:53:20;;;;;;;;;5.50;5.50;;;;;;;;5080478;27;45404;-70
2022/04/21 01:55:46;;;;;;;;;4.00;4.00;;;;;;;;5078001;28;45523;-70
2022/04/21 01:58:11;;;;;;;;;4.50;4.50;;;;;;;;5073033;27;46390;-70
2022/04/21 02:00:36;;;;;;;;;4.75;4.75;;;;;;;;5074684;27;45425;-70
2022/04/21 02:03:02;;;;;;;;;2.50;2.50;;;;;;;;5077462;28;45385;-70
2022/04/21 02:05:27;;;;;;;;;2.50;2.50;;;;;;;;5077790;27;45528;-70
2022/04/21 02:07:52;;;;;;;;;4.75;3.50;;;;;;;;5072802;28;46434;-70
2022/04/21 02:10:18;;;;;;;;;3.00;2.33;;;;;;;;5080129;27;45460;-69
2022/04/21 02:12:45;;;;;;;;;2.25;2.25;;;;;;;;5077606;28;45381;-70
2022/04/21 02:15:10;;;;;;;;;4.00;4.00;;;;;;;;5080771;27;45303;-70
2022/04/21 02:17:36;;;;;;;;;2.00;2.00;;;;;;;;5078494;27;46311;-70
2022/04/21 02:20:03;;;;;;;;;4.00;4.00;;;;;;;;5076750;28;45376;-70
2022/04/21 02:22:28;;;;;;;;;3.00;2.00;;;;;;;;5078642;27;45399;-70
2022/04/21 02:24:53;;;;;;;;;4.00;3.00;;;;;;;;5076725;28;45540;-70
2022/04/21 02:27:18;;;;;;;;;3.75;3.00;;;;;;;;5077063;27;46108;-70
2022/04/21 02:29:44;;;;;;;;;2.00;2.00;;;;;;;;5077685;27;45284;-70
2022/04/21 02:32:09;;;;;;;;;3.00;3.00;;;;;;;;5078325;28;45328;-70
2022/04/21 02:34:34;;;;;;;;;3.25;2.25;;;;;;;;5078184;27;45523;-70
2022/04/21 02:36:59;;;;;;;;;2.75;2.00;;;;;;;;5077358;27;46502;-70
2022/04/21 02:39:25;;;;;;;;;3.00;3.00;;;;;;;;5077598;27;45397;-70
2022/04/21 02:41:50;;;;;;;;;6.25;4.75;;;;;;;;5077424;27;45394;-70
2022/04/21 02:44:15;;;;;;;;;4.00;4.00;;;;;;;;5077507;27;45465;-70
2022/04/21 02:46:41;;;;;;;;;3.50;3.50;;;;;;;;5076502;28;45796;-70
2022/04/21 02:49:06;;;;;;;;;2.75;2.75;;;;;;;;5075156;27;45503;-70
2022/04/21 02:51:31;;;;;;;;;3.00;3.00;;;;;;;;5064292;28;45367;-70
2022/04/21 02:59:28;;;;;;;;;3.00;3.00;;;;;;;;5076869;28;45527;-70
2022/04/21 03:01:53;;;;;;;;;2.25;2.25;;;;;;;;5076978;27;45512;-70
2022/04/21 03:04:18;;;;;;;;;2.75;2.50;;;;;;;;5079466;27;45416;-70
2022/04/21 03:06:43;;;;;;;;;1.00;1.00;;;;;;;;5076743;28;50950;-70
2022/04/21 03:09:09;;;;;;;;;3.50;3.25;;;;;;;;5078704;27;45684;-70
2022/04/21 03:11:34;;;;;;;;;3.00;3.00;;;;;;;;5077777;27;45397;-70
2022/04/21 03:13:59;;;;;;;;;5.00;3.00;;;;;;;;5076566;28;45532;-70
2022/04/21 03:16:25;;;;;;;;;2.25;2.00;;;;;;;;5076054;28;45554;-70
2022/04/21 03:18:50;;;;;;;;;3.50;2.75;;;;;;;;5076366;28;45300;-70
2022/04/21 03:26:42;;;;;;;;;2.75;2.00;;;;;;;;5073739;28;45397;-70
2022/04/21 03:29:08;;;;;;;;;3.00;3.00;;;;;;;;5076530;27;45591;-70
2022/04/21 03:31:33;;;;;;;;;2.00;2.00;;;;;;;;5076627;27;45409;-70
2022/04/21 03:33:59;;;;;;;;;4.00;3.50;;;;;;;;5075848;28;45450;-70
2022/04/21 03:36:24;;;;;;;;;3.00;3.00;;;;;;;;5075177;28;47071;-70
2022/04/21 03:38:49;;;;;;;;;2.75;2.75;;;;;;;;5076523;27;45494;-70
2022/04/21 03:41:14;;;;;;;;;3.50;3.50;;;;;;;;5077389;28;45576;-70
2022/04/21 03:43:40;;;;;;;;;4.25;4.00;;;;;;;;5075280;28;45558;-70
2022/04/21 03:46:05;;;;;;;;;2.75;2.25;;;;;;;;5078077;27;45991;-70
2022/04/21 03:48:30;;;;;;;;;3.75;3.75;;;;;;;;5078051;27;45310;-70
2022/04/21 03:50:56;;;;;;;;;2.50;2.00;;;;;;;;5061602;27;45456;-70
2022/04/21 03:53:21;;;;;;;;;2.25;2.25;;;;;;;;5076886;27;45540;-70
2022/04/21 03:55:46;;;;;;;;;4.00;4.00;;;;;;;;5075257;28;45764;-70
2022/04/21 03:58:12;;;;;;;;;4.00;3.00;;;;;;;;5076212;27;45458;-70
2022/04/21 04:00:37;;;;;;;;;2.25;2.25;;;;;;;;5078391;27;45422;-70
2022/04/21 04:03:02;;;;;;;;;2.75;2.00;;;;;;;;5076961;27;45771;-70
2022/04/21 04:05:27;;;;;;;;;3.75;3.75;;;;;;;;5077786;27;46469;-70
2022/04/21 04:10:52;;;;;;;;;4.00;2.75;;;;;;;;5074901;28;45719;-70
2022/04/21 04:13:21;;;;;;;;;6.00;3.00;;;;;;;;5078841;27;45548;-70
2022/04/21 04:15:48;;;;;;;;;1.25;1.25;;;;;;;;5075434;28;45425;-70
2022/04/21 04:18:14;;;;;;;;;3.00;3.00;;;;;;;;5075396;28;45373;-70
2022/04/21 04:20:39;;;;;;;;;1.50;1.50;;;;;;;;5075894;27;45400;-70
2022/04/21 04:23:05;;;;;;;;;1.75;1.75;;;;;;;;5078320;27;45256;-70
2022/04/21 04:25:30;;;;;;;;;0.75;0.75;;;;;;;;5075178;27;46858;-70
2022/04/21 04:27:57;;;;;;;;;3.00;3.00;;;;;;;;5075281;28;45470;-70
2022/04/21 04:30:22;;;;;;;;;3.00;3.00;;;;;;;;5075141;27;45475;-70
2022/04/21 04:32:47;;;;;;;;;3.25;2.00;;;;;;;;5075203;28;45481;-70
2022/04/21 04:35:12;;;;;;;;;3.50;2.25;;;;;;;;5076204;28;46319;-70
2022/04/21 04:37:38;;;;;;;;;4.00;4.00;;;;;;;;5074065;28;45416;-70
2022/04/21 04:40:03;;;;;;;;;3.00;3.00;;;;;;;;5074652;28;45531;-70
2022/04/21 04:42:29;;;;;;;;;2.00;2.00;;;;;;;;5075069;27;45461;-70
2022/04/21 04:47:38;;;;;;;;;3.75;3.00;;;;;;;;5075747;28;45338;-69
2022/04/21 04:50:03;;;;;;;;;4.00;4.00;;;;;;;;5076845;27;45573;-70
2022/04/21 04:52:28;;;;;;;;;3.00;3.00;;;;;;;;5077816;27;45499;-70
2022/04/21 04:54:54;;;;;;;;;2.25;2.25;;;;;;;;5077715;27;45459;-70
2022/04/21 04:57:19;;;;;;;;;3.25;3.25;;;;;;;;5075176;28;45431;-70
2022/04/21 04:59:44;;;;;;;;;3.00;3.00;;;;;;;;5074614;27;45485;-70
2022/04/21 05:02:09;;;;;;;;;4.25;4.25;;;;;;;;5077869;27;45303;-70
2022/04/21 05:04:35;;;;;;;;;5.00;2.75;;;;;;;;5076261;27;46032;-71
2022/04/21 05:07:00;;;;;;;;;3.00;3.00;;;;;;;;5075129;28;45489;-70
2022/04/21 05:09:25;;;;;;;;;4.75;4.75;;;;;;;;5075800;27;45712;-71
2022/04/21 05:11:52;;;;;;;;;4.25;2.00;;;;;;;;5075077;27;45530;-71
2022/04/21 05:14:18;;;;;;;;;3.50;2.25;;;;;;;;5075190;28;46463;-70
2022/04/21 05:16:43;;;;;;;;;4.25;2.75;;;;;;;;5077465;27;45695;-71
2022/04/21 05:19:10;;;;;;;;;4.00;4.00;;;;;;;;5077709;27;45464;-71
2022/04/21 05:21:35;;;;;;;;;3.50;3.50;;;;;;;;5076105;27;45569;-70
2022/04/21 05:24:01;;;;;;;;;4.67;4.67;;;;;;;;5074049;27;46538;-74
2022/04/21 05:26:27;;;;;;;;;3.25;3.25;;;;;;;;5075225;28;45501;-74
2022/04/21 05:28:52;;;;;;;;;3.00;3.00;;;;;;;;5067476;27;45581;-72
2022/04/21 05:31:18;;;;;;;;;4.00;4.00;;;;;;;;5067789;27;45446;-71
2022/04/21 05:33:43;;;;;;;;;3.25;3.25;;;;;;;;5066304;28;45527;-76
2022/04/21 05:36:09;;;;;;;;;4.00;2.75;;;;;;;;5066482;27;45423;-71
2022/04/21 05:38:35;;;;;;;;;4.00;4.00;;;;;;;;5070893;27;45406;-69
2022/04/21 05:41:00;;;;;;;;;4.50;4.00;;;;;;;;5075097;27;45600;-69
2022/04/21 05:43:38;;;;;;;;;6.75;4.50;;;;;;;;5073190;28;46600;-69
2022/04/21 05:46:04;;;;;;;;;3.75;3.75;;;;;;;;5070882;27;45415;-69
2022/04/21 05:48:29;;;;;;;;;3.25;3.25;;;;;;;;5070159;27;45900;-69
2022/04/21 05:50:55;;;;;;;;;4.00;4.00;;;;;;;;5073066;28;45437;-69
2022/04/21 05:53:21;;;;;;;;;10.25;10.25;;;;;;;;5074681;27;46221;-70
2022/04/21 05:55:47;;;;;;;;;13.50;13.50;;;;;;;;5070313;27;45631;-71
2022/04/21 05:58:12;;;;;;;;;14.00;14.00;;;;;;;;5073178;27;45850;-72
2022/04/21 06:00:37;;;;;;;;;14.50;12.25;;;;;;;;5072660;27;45525;-72
2022/04/21 06:03:03;;;;;;;;;12.25;12.00;;;;;;;;5071875;28;47428;-69
2022/04/21 06:05:28;;;;;;;;;11.00;11.00;;;;;;;;5074162;27;45568;-71
2022/04/21 06:07:53;;;;;;;;;10.50;10.50;;;;;;;;5074135;28;45959;-67
2022/04/21 06:10:18;;;;;;;;;8.00;7.00;;;;;;;;5077192;27;45308;-73
2022/04/21 06:12:43;;;;;;;;;7.50;7.50;;;;;;;;5070104;27;45422;-71
2022/04/21 06:15:09;;;;;;;;;8.00;7.75;;;;;;;;5074085;28;45628;-71
2022/04/21 06:17:34;;;;;;;;;11.25;7.75;;;;;;;;5074587;28;45311;-71
2022/04/21 06:19:59;;;;;;;;;9.25;9.25;;;;;;;;5075020;27;45402;-71
2022/04/21 06:22:24;;;;;;;;;7.25;6.75;;;;;;;;5073915;27;45527;-71
2022/04/21 06:24:50;;;;;;;;;6.25;6.25;;;;;;;;5075879;27;45344;-71
2022/04/21 06:27:15;;;;;;;;;7.00;7.00;;;;;;;;5066871;28;45450;-71
2022/04/21 06:29:40;;;;;;;;;9.00;8.75;;;;;;;;5074540;27;45339;-71
2022/04/21 06:32:06;;;;;;;;;7.75;6.25;;;;;;;;5075560;28;45555;-71
2022/04/21 06:34:32;;;;;;;;;7.00;7.00;;;;;;;;5077154;28;45397;-71
2022/04/21 06:36:59;;;;;;;;;7.25;7.25;;;;;;;;5077361;27;45600;-71
2022/04/21 06:39:24;;;;;;;;;5.00;5.00;;;;;;;;5076612;27;45379;-71
2022/04/21 06:41:49;;;;;;;;;7.25;7.25;;;;;;;;5076561;27;47419;-71
2022/04/21 06:49:42;;;;;;;;;6.75;6.00;;;;;;;;5077095;28;45351;-71
2022/04/21 06:52:07;;;;;;;;;9.25;7.75;;;;;;;;5072215;28;46571;-71
2022/04/21 06:54:33;;;;;;;;;7.00;6.75;;;;;;;;5075542;27;45550;-71
2022/04/21 06:56:58;;;;;;;;;9.00;6.00;;;;;;;;5077339;28;45365;-71
2022/04/21 06:59:23;;;;;;;;;8.00;6.25;;;;;;;;5073504;27;45270;-71
2022/04/21 07:01:48;;;;;;;;;10.00;8.25;;;;;;;;5072612;27;46525;-71
2022/04/21 07:04:14;;;;;;;;;5.25;5.00;;;;;;;;5072755;27;45537;-71
2022/04/21 07:06:39;;;;;;;;;5.00;5.00;;;;;;;;5077186;27;45489;-71
2022/04/21 07:09:04;;;;;;;;;6.50;6.50;;;;;;;;5076998;27;45528;-71
2022/04/21 07:11:30;;;;;;;;;5.25;5.25;;;;;;;;5073928;27;46546;-71
2022/04/21 07:13:56;;;;;;;;;8.50;5.75;;;;;;;;5075206;28;45370;-71
2022/04/21 07:16:21;;;;;;;;;8.50;7.00;;;;;;;;5071467;28;45393;-71
2022/04/21 07:18:46;;;;;;;;;6.75;5.50;;;;;;;;5077806;27;45503;-71
2022/04/21 07:21:11;;;;;;;;;8.25;7.00;;;;;;;;5076115;28;46507;-71
2022/04/21 07:23:39;;;;;;;;;7.00;7.00;;;;;;;;5077315;27;45385;-71
2022/04/21 07:26:04;;;;;;;;;9.00;6.75;;;;;;;;5076031;27;45484;-71
2022/04/21 07:28:29;;;;;;;;;6.00;6.00;;;;;;;;5072674;27;45544;-71
2022/04/21 07:30:54;;;;;;;;;6.00;6.00;;;;;;;;5068017;27;45511;-71
2022/04/21 07:33:20;;;;;;;;;5.00;5.00;;;;;;;;5076055;27;45477;-71
2022/04/21 07:35:45;;;;;;;;;8.25;6.00;;;;;;;;5076909;27;45406;-71
2022/04/21 07:38:10;;;;;;;;;5.50;5.50;;;;;;;;5077472;27;45216;-71
2022/04/21 07:40:38;;;;;;;;;6.00;4.00;;;;;;;;5075482;27;46603;-71
2022/04/21 07:43:08;;;;;;;;;6.25;6.25;;;;;;;;5076908;27;45374;-71
2022/04/21 07:45:33;;;;;;;;;8.25;5.25;;;;;;;;5078557;27;45413;-71
2022/04/21 07:47:58;;;;;;;;;6.25;6.25;;;;;;;;5076868;27;45315;-71
2022/04/21 07:50:24;;;;;;;;;6.00;6.00;;;;;;;;5076490;28;45371;-71
2022/04/21 07:55:33;;;;;;;;;7.75;7.25;;;;;;;;5071159;28;45473;-71
2022/04/21 07:57:59;;;;;;;;;5.50;5.50;;;;;;;;5076017;28;45377;-71
2022/04/21 08:00:24;;;;;;;;;5.00;5.00;;;;;;;;5075797;28;47097;-71
2022/04/21 08:02:50;;;;;;;;;5.00;5.00;;;;;;;;5076254;27;45450;-71
2022/04/21 08:05:16;;;;;;;;;4.25;4.25;;;;;;;;5076873;28;45493;-71
2022/04/21 08:07:42;;;;;;;;;5.00;4.00;;;;;;;;5075722;28;45692;-71
2022/04/21 08:10:08;;;;;;;;;7.75;6.50;;;;;;;;5074810;28;45387;-71
2022/04/21 08:12:40;;;;;;;;;6.25;4.75;;;;;;;;5075872;28;45573;-71
2022/04/21 08:15:06;;;;;;;;;6.00;6.00;;;;;;;;5075088;27;45311;-71
2022/04/21 08:17:31;;;;;;;;;7.25;5.50;;;;;;;;5076740;27;45297;-71
2022/04/21 08:19:56;;;;;;;;;5.75;5.75;;;;;;;;5077955;27;45449;-71
2022/04/21 08:22:22;;;;;;;;;4.75;4.75;;;;;;;;5075194;27;45466;-71
2022/04/21 08:32:59;;;;;;;;;5.00;4.25;;;;;;;;5074336;28;45334;-70
2022/04/21 08:35:24;;;;;;;;;6.75;5.25;;;;;;;;5075879;27;45369;-71
2022/04/21 08:37:50;;;;;;;;;4.25;4.25;;;;;;;;5074631;27;45407;-71
2022/04/21 08:40:16;;;;;;;;;5.00;5.00;;;;;;;;5074716;28;45524;-71
2022/04/21 08:42:41;;;;;;;;;7.00;6.00;;;;;;;;5074738;28;45340;-71
2022/04/21 08:45:08;;;;;;;;;4.75;4.75;;;;;;;;5075083;27;45338;-71
2022/04/21 08:47:33;;;;;;;;;5.75;5.75;;;;;;;;5075745;27;45368;-71
2022/04/21 08:50:03;;;;;;;;;6.00;6.00;;;;;;;;5074426;27;45413;-71
2022/04/21 08:52:29;;;;;;;;;7.25;6.50;;;;;;;;5073791;28;45447;-71
2022/04/21 08:54:54;;;;;;;;;5.00;5.00;;;;;;;;5073870;27;45319;-71
2022/04/21 08:57:21;;;;;;;;;7.25;6.00;;;;;;;;5075133;28;45553;-71
2022/04/21 08:59:47;;;;;;;;;8.00;5.00;;;;;;;;5075223;28;46377;-71
2022/04/21 09:02:12;;;;;;;;;3.75;3.75;;;;;;;;5075645;28;45391;-71
2022/04/21 09:04:37;;;;;;;;;6.00;6.00;;;;;;;;5074920;28;45564;-71
2022/04/21 09:07:16;;;;;;;;;5.00;5.00;;;;;;;;5074523;28;45388;-71
2022/04/21 09:10:01;;;;;;;;;4.75;4.25;;;;;;;;5074401;28;46394;-69
2022/04/21 09:12:26;;;;;;;;;4.75;4.75;;;;;;;;5061230;28;45519;-71
2022/04/21 09:14:51;;;;;;;;;7.50;6.00;;;;;;;;5075702;28;45357;-71
2022/04/21 09:17:17;;;;;;;;;5.75;5.75;;;;;;;;5070871;27;45565;-71
2022/04/21 09:19:58;;;;;;;;;4.25;2.00;;;;;;;;5074421;28;47181;-71
2022/04/21 09:22:24;;;;;;;;;4.75;4.75;;;;;;;;5070671;28;45281;-71
2022/04/21 09:24:53;;;;;;;;;7.00;6.00;;;;;;;;5063738;28;45351;-71
2022/04/21 09:27:18;;;;;;;;;7.75;5.75;;;;;;;;5076251;27;45688;-71
2022/04/21 09:29:43;;;;;;;;;5.25;5.00;;;;;;;;5074411;27;46318;-71
2022/04/21 09:32:08;;;;;;;;;6.00;6.00;;;;;;;;5076071;27;45457;-71
2022/04/21 09:34:35;;;;;;;;;5.00;4.25;;;;;;;;5076252;27;45449;-71
2022/04/21 09:37:00;;;;;;;;;6.00;5.00;;;;;;;;5075268;27;45504;-71
2022/04/21 09:39:27;;;;;;;;;5.25;5.25;;;;;;;;5074189;28;46063;-71
2022/04/21 09:41:53;;;;;;;;;8.25;6.75;;;;;;;;5074585;27;45595;-71
2022/04/21 09:47:03;;;;;;;;;4.75;4.75;;;;;;;;5073597;28;45367;-71
2022/04/21 09:49:41;;;;;;;;;7.50;5.50;;;;;;;;5077124;27;46133;-71
2022/04/21 09:52:07;;;;;;;;;6.75;5.50;;;;;;;;5073515;28;45503;-71
2022/04/21 09:54:33;;;;;;;;;8.50;6.75;;;;;;;;5071130;27;45320;-71
2022/04/21 09:56:59;;;;;;;;;6.25;5.75;;;;;;;;5074054;27;45593;-71
2022/04/21 09:59:25;;;;;;;;;5.50;5.50;;;;;;;;5075296;28;45414;-71
2022/04/21 10:01:50;;;;;;;;;5.75;5.75;;;;;;;;5074137;27;45354;-71
2022/04/21 10:04:18;;;;;;;;;5.00;4.50;;;;;;;;5076099;27;45260;-71
2022/04/21 10:06:44;;;;;;;;;6.00;6.00;;;;;;;;5075254;27;45585;-71
2022/04/21 10:09:10;;;;;;;;;6.00;6.00;;;;;;;;5061057;28;46593;-71
2022/04/21 10:11:38;;;;;;;;;3.75;3.75;;;;;;;;5078714;27;45860;-71
2022/04/21 10:14:04;;;;;;;;;5.00;5.00;;;;;;;;5077374;28;45348;-71
2022/04/21 10:16:29;;;;;;;;;5.50;5.00;;;;;;;;5078393;27;45612;-71
2022/04/21 10:18:55;;;;;;;;;6.25;5.25;;;;;;;;5076098;28;45464;-71
2022/04/21 10:21:29;;;;;;;;;5.50;5.50;;;;;;;;5077335;28;45945;-71
2022/04/21 10:23:55;;;;;;;;;4.00;4.00;;;;;;;;5077408;27;45429;-71
2022/04/21 10:26:34;;;;;;;;;7.00;6.00;;;;;;;;5080516;27;45278;-71
2022/04/21 10:29:08;;;;;;;;;7.00;6.00;;;;;;;;5076484;27;47109;-71
2022/04/21 10:31:35;;;;;;;;;5.50;5.25;;;;;;;;5075841;27;45650;-71
2022/04/21 10:34:04;;;;;;;;;5.25;5.25;;;;;;;;5078815;27;45404;-71
2022/04/21 10:36:37;;;;;;;;;4.25;4.00;;;;;;;;5079544;27;45409;-71
2022/04/21 10:39:18;;;;;;;;;4.00;4.00;;;;;;;;5077099;27;46255;-71
2022/04/21 10:41:44;;;;;;;;;4.75;3.75;;;;;;;;5074055;28;45449;-71
2022/04/21 10:44:15;;;;;;;;;5.25;5.00;;;;;;;;5076426;28;45272;-71
2022/04/21 10:46:40;;;;;;;;;5.75;5.75;;;;;;;;5076965;27;45452;-72
2022/04/21 10:49:06;;;;;;;;;5.00;5.00;;;;;;;;5075703;28;47194;-71
2022/04/21 10:57:12;;;;;;;;;4.50;3.50;;;;;;;;5073348;28;45512;-71
2022/04/21 10:57:27;;;;;;;;;4.50;4.50;;;;;;;;5063255;28;45433;-72
2022/04/21 11:00:05;;;;;;;;;3.75;3.75;;;;;;;;5076916;27;46275;-71
2022/04/21 11:02:43;;;;;;;;;6.75;4.50;;;;;;;;5062107;28;45349;-71
2022/04/21 11:05:21;;;;;;;;;5.50;5.00;;;;;;;;5075853;28;45618;-71
2022/04/21 11:07:50;;;;;;;;;3.50;3.50;;;;;;;;5076653;27;45532;-71
2022/04/21 11:10:27;;;;;;;;;4.00;4.00;;;;;;;;5076668;27;45464;-71
2022/04/21 11:12:53;;;;;;;;;7.00;6.75;;;;;;;;5077140;28;45530;-71
2022/04/21 11:15:37;;;;;;;;;5.25;5.25;;;;;;;;5077550;27;45617;-71
2022/04/21 11:18:10;;;;;;;;;6.00;6.00;;;;;;;;5075841;28;45982;-71
2022/04/21 11:20:37;;;;;;;;;5.50;5.25;;;;;;;;5076797;27;45733;-71
2022/04/21 11:23:02;;;;;;;;;4.50;4.50;;;;;;;;5071733;28;45474;-71
2022/04/21 11:25:31;;;;;;;;;6.00;6.00;;;;;;;;5072168;28;45410;-71
2022/04/21 11:27:57;;;;;;;;;4.75;3.25;;;;;;;;5072516;28;45510;-71
2022/04/21 11:30:22;;;;;;;;;6.00;4.75;;;;;;;;5075348;27;45484;-71
2022/04/21 11:32:49;;;;;;;;;5.25;5.25;;;;;;;;5073801;28;45336;-71
2022/04/21 11:35:16;;;;;;;;;3.00;3.00;;;;;;;;5075896;28;45528;-71
2022/04/21 11:37:48;;;;;;;;;6.75;4.75;;;;;;;;5076106;27;45266;-71
2022/04/21 11:40:17;;;;;;;;;6.50;5.75;;;;;;;;5076006;28;45428;-71
2022/04/21 11:42:42;;;;;;;;;5.50;5.00;;;;;;;;5075983;28;45603;-71
2022/04/21 11:45:07;;;;;;;;;4.75;4.25;;;;;;;;5074774;28;45452;-71
2022/04/21 11:47:33;;;;;;;;;5.50;5.00;;;;;;;;5076406;28;45423;-71
2022/04/21 11:50:01;;;;;;;;;4.00;2.50;;;;;;;;5076918;27;46308;-71
2022/04/21 11:52:27;;;;;;;;;4.25;3.00;;;;;;;;5075702;28;45410;-71
2022/04/21 11:55:01;;;;;;;;;6.50;5.25;;;;;;;;5075413;27;45951;-71
2022/04/21 11:57:40;;;;;;;;;4.50;4.50;;;;;;;;5078341;27;45381;-71
2022/04/21 12:00:05;;;;;;;;;4.75;4.75;;;;;;;;5075126;27;45588;-71
2022/04/21 12:07:58;;;;;;;;;5.00;4.75;;;;;;;;5075805;28;45357;-71
2022/04/21 12:10:23;;;;;;;;;5.00;5.00;;;;;;;;5077027;27;45442;-71
2022/04/21 12:12:48;;;;;;;;;4.00;4.00;;;;;;;;5075626;27;45445;-71
2022/04/21 12:15:14;;;;;;;;;4.00;4.00;;;;;;;;5076985;27;45437;-71
2022/04/21 12:17:39;;;;;;;;;5.75;4.00;;;;;;;;5076504;28;45405;-71
2022/04/21 12:20:07;;;;;;;;;6.50;5.00;;;;;;;;5075087;27;45468;-71
2022/04/21 12:22:32;;;;;;;;;4.00;4.00;;;;;;;;5075388;28;45486;-71
2022/04/21 12:24:58;;;;;;;;;4.50;4.50;;;;;;;;5076537;27;45572;-71
2022/04/21 12:27:25;;;;;;;;;5.00;5.00;;;;;;;;5075386;28;45398;-71
2022/04/21 12:29:53;;;;;;;;;4.00;4.00;;;;;;;;5074568;27;46437;-72
2022/04/21 12:32:27;;;;;;;;;4.75;4.75;;;;;;;;5076119;28;45422;-71
2022/04/21 12:34:55;;;;;;;;;4.25;4.00;;;;;;;;5076883;27;45503;-71
2022/04/21 12:37:36;;;;;;;;;4.00;3.25;;;;;;;;5076801;27;45553;-71
2022/04/21 12:40:04;;;;;;;;;4.25;4.25;;;;;;;;5075110;28;46091;-71
2022/04/21 12:42:30;;;;;;;;;3.25;3.25;;;;;;;;5075015;28;45382;-71
2022/04/21 12:44:55;;;;;;;;;4.50;4.50;;;;;;;;5074901;27;45491;-71
2022/04/21 12:47:21;;;;;;;;;5.00;4.00;;;;;;;;5075617;28;45470;-71
2022/04/21 12:49:49;;;;;;;;;4.00;4.00;;;;;;;;5075696;27;45359;-71
2022/04/21 12:52:14;;;;;;;;;5.00;5.00;;;;;;;;5076900;27;45448;-71
2022/04/21 12:54:40;;;;;;;;;5.00;5.00;;;;;;;;5076220;27;45374;-71
2022/04/21 12:57:08;;;;;;;;;5.00;5.00;;;;;;;;5076650;27;45724;-71
2022/04/21 12:59:33;;;;;;;;;5.00;4.00;;;;;;;;5064288;27;45476;-71
2022/04/21 13:01:58;;;;;;;;;5.75;5.50;;;;;;;;5073580;28;45433;-71
2022/04/21 13:04:23;;;;;;;;;4.25;4.25;;;;;;;;5074629;28;45488;-72
2022/04/21 13:06:49;;;;;;;;;5.25;5.25;;;;;;;;5076500;27;45479;-72
2022/04/21 13:09:14;;;;;;;;;4.00;4.00;;;;;;;;5075463;27;45575;-71
2022/04/21 13:11:39;;;;;;;;;3.00;3.00;;;;;;;;5075892;28;45405;-71
2022/04/21 13:14:04;;;;;;;;;4.50;4.50;;;;;;;;5077578;27;45544;-71
2022/04/21 13:16:30;;;;;;;;;4.25;4.25;;;;;;;;5073821;28;45434;-71
2022/04/21 13:18:56;;;;;;;;;5.00;5.00;;;;;;;;5074308;27;46099;-71
2022/04/21 13:24:05;;;;;;;;;4.75;4.25;;;;;;;;5074590;28;45479;-71
2022/04/21 13:26:30;;;;;;;;;4.50;4.50;;;;;;;;5075482;27;45438;-71
2022/04/21 13:28:56;;;;;;;;;4.00;4.00;;;;;;;;5074195;27;45625;-71
2022/04/21 13:34:05;;;;;;;;;6.00;5.00;;;;;;;;5074139;28;45481;-72
2022/04/21 13:36:30;;;;;;;;;4.00;4.00;;;;;;;;5074503;28;45229;-71
2022/04/21 13:38:57;;;;;;;;;3.50;3.25;;;;;;;;5074604;28;46593;-71
2022/04/21 13:41:22;;;;;;;;;5.50;5.50;;;;;;;;5073478;28;45223;-71
2022/04/21 13:43:48;;;;;;;;;5.00;5.00;;;;;;;;5078002;27;45359;-71
2022/04/21 13:46:13;;;;;;;;;5.00;5.00;;;;;;;;5069855;28;45453;-71
2022/04/21 13:48:38;;;;;;;;;6.25;6.25;;;;;;;;5081106;27;45406;-71
2022/04/21 13:51:04;;;;;;;;;4.75;4.75;;;;;;;;5079626;27;45407;-71
2022/04/21 13:53:30;;;;;;;;;8.50;4.75;;;;;;;;5078877;27;45437;-71
2022/04/21 13:55:56;;;;;;;;;4.50;4.50;;;;;;;;5075134;28;45673;-70
2022/04/21 13:58:21;;;;;;;;;4.50;4.25;;;;;;;;5077681;28;45915;-71
2022/04/21 14:00:46;;;;;;;;;6.25;5.00;;;;;;;;5077050;28;45464;-71
2022/04/21 14:03:12;;;;;;;;;4.50;4.50;;;;;;;;5071319;27;45334;-71
2022/04/21 14:05:39;;;;;;;;;4.00;4.00;;;;;;;;5078768;27;45327;-71
2022/04/21 14:08:04;;;;;;;;;4.00;4.00;;;;;;;;5077129;28;45643;-71
2022/04/21 14:10:30;;;;;;;;;5.00;5.00;;;;;;;;5071046;28;45752;-71
2022/04/21 14:12:56;;;;;;;;;5.00;5.00;;;;;;;;5066760;28;45358;-71
2022/04/21 14:15:21;;;;;;;;;4.50;4.50;;;;;;;;5079123;27;45447;-71
2022/04/21 14:17:46;;;;;;;;;5.00;4.00;;;;;;;;5077644;27;45358;-72
2022/04/21 14:20:12;;;;;;;;;4.00;4.00;;;;;;;;5077674;27;45501;-71
2022/04/21 14:22:37;;;;;;;;;4.50;4.50;;;;;;;;5077214;27;45373;-72
2022/04/21 14:25:02;;;;;;;;;5.25;5.25;;;;;;;;5076190;28;45903;-71
2022/04/21 14:27:27;;;;;;;;;4.75;4.75;;;;;;;;5077336;28;45473;-71
2022/04/21 14:29:54;;;;;;;;;3.75;3.50;;;;;;;;5077324;27;45473;-72
2022/04/21 14:32:19;;;;;;;;;5.00;4.00;;;;;;;;5078350;28;45483;-71
2022/04/21 14:34:44;;;;;;;;;4.00;4.00;;;;;;;;5076910;28;45746;-72
2022/04/21 14:37:10;;;;;;;;;5.50;4.00;;;;;;;;5076557;27;46143;-72
2022/04/21 14:45:03;;;;;;;;;4.50;4.50;;;;;;;;5076972;27;45396;-69
2022/04/21 14:47:28;;;;;;;;;5.00;5.00;;;;;;;;5078910;27;46430;-72
2022/04/21 14:49:54;;;;;;;;;6.00;4.00;;;;;;;;5078615;27;45417;-72
2022/04/21 14:52:22;;;;;;;;;3.00;3.00;;;;;;;;5076321;27;45450;-72
2022/04/21 14:54:47;;;;;;;;;3.75;3.75;;;;;;;;5070587;27;45558;-72
2022/04/21 14:57:13;;;;;;;;;5.25;5.25;;;;;;;;5076933;28;46615;-72
2022/04/21 14:59:39;;;;;;;;;5.00;5.00;;;;;;;;5073431;28;45481;-72
2022/04/21 15:02:07;;;;;;;;;6.00;4.50;;;;;;;;5079664;27;45481;-72
2022/04/21 15:04:32;;;;;;;;;5.00;5.00;;;;;;;;5079745;27;45394;-72
2022/04/21 15:06:58;;;;;;;;;4.75;4.75;;;;;;;;5079481;27;45465;-73
2022/04/21 15:09:23;;;;;;;;;4.00;4.00;;;;;;;;5075824;28;45486;-71
2022/04/21 15:11:50;;;;;;;;;4.50;4.50;;;;;;;;5076341;27;45432;-71
2022/04/21 15:14:16;;;;;;;;;3.75;3.75;;;;;;;;5079262;27;45626;-71
2022/04/21 15:16:41;;;;;;;;;6.25;4.75;;;;;;;;5076384;28;47260;-71
2022/04/21 15:19:06;;;;;;;;;6.50;6.50;;;;;;;;5075479;28;45471;-71
2022/04/21 15:21:36;;;;;;;;;2.75;2.75;;;;;;;;5076616;27;45316;-72
2022/04/21 15:24:01;;;;;;;;;4.50;4.00;;;;;;;;5077603;27;45394;-72
2022/04/21 15:26:26;;;;;;;;;3.75;3.75;;;;;;;;5077079;27;45633;-72
2022/04/21 15:28:51;;;;;;;;;4.00;4.00;;;;;;;;5078919;27;45263;-72
2022/04/21 15:31:21;;;;;;;;;4.00;4.00;;;;;;;;5076725;28;45338;-71
2022/04/21 15:33:46;;;;;;;;;6.25;5.00;;;;;;;;5076044;28;45303;-71
2022/04/21 15:36:13;;;;;;;;;4.50;4.50;;;;;;;;5076690;27;45522;-72
2022/04/21 15:38:38;;;;;;;;;5.75;4.25;;;;;;;;5076508;27;45474;-72
2022/04/21 15:41:03;;;;;;;;;3.00;3.00;;;;;;;;5076289;27;45268;-71